METAR AND TAF INFORMATION
METAR FOR ESNQ
ADDS - METARS form results

(2336 UTC 04 August 2021)
Data provider http://aviationweather.gov/metar/data/
 
METAR text: ESNQ 042320Z AUTO 19003KT 9999 OVC068/// 08/05 Q1010
Conditions at: ESNQ (KIRUNA AIRPORT , SE) observed 2320 UTC 04 August 2021
Temperature: 8.0°C (46°F)
Dewpoint: 5.0°C (41°F) [RH = 81%]
Pressure (altimeter): 29.82 inches Hg (1010.0 mb)
Winds: from the S (190 degrees) at 3 MPH (3 knots; 1.5 m/s)
Visibility: 6 or more miles (10+ km)
Ceiling: 6800 feet AGL
Clouds: overcast cloud deck at 6800 feet AGL
Weather: no significant weather observed at this time

METAR text: ESNQ 042250Z AUTO 27003KT 9999 BKN068/// 06/04 Q1010
Conditions at: ESNQ (KIRUNA AIRPORT , SE) observed 2250 UTC 04 August 2021
Temperature: 6.0°C (43°F)
Dewpoint: 4.0°C (39°F) [RH = 87%]
Pressure (altimeter): 29.82 inches Hg (1010.0 mb)
Winds: from the W (270 degrees) at 3 MPH (3 knots; 1.5 m/s)
Visibility: 6 or more miles (10+ km)
Ceiling: 6800 feet AGL
Clouds: broken clouds at 6800 feet AGL
Weather: no significant weather observed at this time

Forecast for: ESNQ (KIRUNA AIRPORT , SE)
Text: TAF ESNQ 041430Z 0415/0419 35010KT CAVOK
Forecast period: 1500 to 1700 UTC 04 August 2021
Forecast type: FROM: standard forecast or significant change
Winds: from the N (350 degrees) at 12 MPH (10 knots; 5.1 m/s)
Visibility: 6 or more miles (10+ km)
Ceiling: unknown
Clouds: missing
Weather: NSW  (no significant weather)
Text: BECMG 0417/0419 27008KT
Forecast period: 1700 to 1900 UTC 04 August 2021
Forecast type: BECOMING: Conditions expected to become as follows by 1900 UTC 04 August 2021
Winds: from the W (270 degrees) at 9 MPH (8 knots; 4.1 m/s)
Visibility: 6 or more miles (10+ km)
Ceiling: unknown
Clouds: missing
Weather: NSW  (no significant weather)

 AIRPORT MAP

 RUNWAY INFORMATION
Runway 03 Runway length 8209 ft Runway width 148 ft
Runway elevation 1508 ft Runway displaced threshold 0 ft Runway heading 34
Runway 21 Runway length 8209 ft Runway width 148 ft
Runway elevation 1432 ft Runway displaced threshold 0 ft Runway heading 214

 AIRPORT FREQUENCIES
Type TWR Name TWR Frequency 130.15 MHZ

 AIRPORT NEAR NAVIGATION AIDS
Type VOR-DME Name Kiruna Frequency 115200 KHZ
Type NDB Name Kiruna Frequency 360 KHZ





Powered by Virtual Airlines Manager

Maps by Rafael Santos